Mazama, Washington
Current Conditions -  °F | °C
As of 8:03 PM on Wednesday 26 Nov 2014 (Local Time) from KOMK Reporting Station
Haze Haze  
Wind Chill: 30°   Ceiling: 200
Heat Index: 34°   Visibility: 1.7mi
Dew Point: 34°   Wind: 5mph
Humidity: 100%   Direction: 160°SSE
Pressure: 30"   Gusts: NA
Location:  48.59°N, 120.41°W
Report Text: KOMK 270403Z AUTO 16004KT 1 3/4SM BR OVC002 01/01 A3000 RMK AO2 T00110011
Loading
Personal Weather Stations






























Interactive Weather Map New forecast layout! Learn more

10-Day Weather Forecast

Advertisements
Track Severe Weather on mobile